Time;durP1;ratioP1;P1;durP2;ratioP2;P2;SDS_P1;SDS_P2;PMS_P1;PMS_P2;Temp;Humidity;BMP_temperature;BMP_pressure;BME280_temperature;BME280_humidity;BME280_pressure;Samples;Min_cycle;Max_cycle;Signal;HPM_P1;HPM_P2
2022/12/19 00:01:14;;;;;;;12.65;11.55;;;;;;;;;;5013518;28;20034;-54
2022/12/19 00:03:51;;;;;;;12.70;11.80;;;;;;;;;;5017606;28;20033;-55
2022/12/19 00:06:19;;;;;;;12.77;11.88;;;;;;;;;;5015191;28;20753;-56
2022/12/19 00:08:45;;;;;;;11.35;10.48;;;;;;;;;;5015975;28;20046;-52
2022/12/19 00:11:12;;;;;;;13.02;11.70;;;;;;;;;;5015284;28;20037;-55
2022/12/19 00:13:38;;;;;;;12.68;11.43;;;;;;;;;;5016528;28;20047;-54
2022/12/19 00:16:06;;;;;;;12.35;11.50;;;;;;;;;;5014625;28;20116;-55
2022/12/19 00:18:31;;;;;;;14.23;13.23;;;;;;;;;;5014501;28;20752;-53
2022/12/19 00:21:03;;;;;;;13.10;11.90;;;;;;;;;;5014932;28;20091;-54
2022/12/19 00:23:30;;;;;;;13.10;11.95;;;;;;;;;;5017539;28;20033;-55
2022/12/19 00:26:05;;;;;;;13.88;12.77;;;;;;;;;;5014321;28;20103;-55
2022/12/19 00:28:31;;;;;;;12.77;11.65;;;;;;;;;;5011112;28;20456;-55
2022/12/19 00:30:59;;;;;;;13.20;11.98;;;;;;;;;;5014902;28;20043;-54
2022/12/19 00:33:25;;;;;;;11.50;10.60;;;;;;;;;;5014728;28;20044;-55
2022/12/19 00:35:55;;;;;;;12.20;11.27;;;;;;;;;;5013020;28;20038;-51
2022/12/19 00:38:21;;;;;;;11.68;10.88;;;;;;;;;;5014152;28;20061;-49
2022/12/19 00:40:46;;;;;;;14.40;12.85;;;;;;;;;;5014324;28;20111;-54
2022/12/19 00:43:11;;;;;;;13.75;12.52;;;;;;;;;;5013940;28;20026;-54
2022/12/19 00:45:37;;;;;;;14.40;12.95;;;;;;;;;;5017296;28;20030;-54
2022/12/19 00:48:02;;;;;;;14.65;13.02;;;;;;;;;;5013879;28;20059;-54
2022/12/19 00:50:28;;;;;;;13.95;12.65;;;;;;;;;;5012642;28;20033;-53
2022/12/19 00:52:53;;;;;;;20.23;14.00;;;;;;;;;;5014472;28;20045;-52
2022/12/19 00:55:18;;;;;;;17.50;14.50;;;;;;;;;;5015352;28;20056;-54
2022/12/19 00:57:44;;;;;;;13.15;11.95;;;;;;;;;;5013168;28;20038;-54
2022/12/19 01:00:09;;;;;;;13.95;11.93;;;;;;;;;;5016441;28;20048;-53
2022/12/19 01:02:35;;;;;;;15.15;13.85;;;;;;;;;;5013482;28;20052;-54
2022/12/19 01:05:00;;;;;;;14.60;13.32;;;;;;;;;;5012320;28;20053;-54
2022/12/19 01:07:26;;;;;;;14.30;13.02;;;;;;;;;;5012275;28;20033;-53
2022/12/19 01:09:51;;;;;;;13.00;12.10;;;;;;;;;;5013845;28;20072;-55
2022/12/19 01:15:00;;;;;;;13.65;12.35;;;;;;;;;;5015886;28;20471;-53
2022/12/19 01:17:25;;;;;;;14.00;12.77;;;;;;;;;;5006514;28;20026;-54
2022/12/19 01:19:51;;;;;;;14.80;13.60;;;;;;;;;;5011764;28;20033;-53
2022/12/19 01:22:16;;;;;;;13.77;12.70;;;;;;;;;;5011272;28;20137;-54
2022/12/19 01:24:41;;;;;;;14.80;13.50;;;;;;;;;;5013368;28;20576;-55
2022/12/19 01:27:07;;;;;;;14.77;13.57;;;;;;;;;;5012212;28;20374;-53
2022/12/19 01:29:33;;;;;;;13.50;12.50;;;;;;;;;;5011983;28;20040;-53
2022/12/19 01:31:58;;;;;;;14.70;13.45;;;;;;;;;;5014345;28;20037;-54
2022/12/19 01:34:24;;;;;;;13.18;12.18;;;;;;;;;;5012864;28;20059;-53
2022/12/19 01:36:49;;;;;;;13.10;12.10;;;;;;;;;;5012425;28;20047;-55
2022/12/19 01:39:14;;;;;;;12.93;11.93;;;;;;;;;;5012939;28;20173;-53
2022/12/19 01:41:40;;;;;;;13.15;12.25;;;;;;;;;;5016550;28;20351;-55
2022/12/19 01:44:07;;;;;;;13.27;12.30;;;;;;;;;;5017896;28;20029;-54
2022/12/19 01:46:42;;;;;;;15.18;13.88;;;;;;;;;;5017021;28;20033;-54
2022/12/19 01:49:33;;;;;;;11.00;10.25;;;;;;;;;;5014749;28;20029;-53
2022/12/19 01:52:04;;;;;;;12.90;11.73;;;;;;;;;;5017083;28;20041;-54
2022/12/19 01:54:31;;;;;;;;;;;;;;;;;;5018888;28;20041;-52
2022/12/19 01:56:58;;;;;;;13.10;12.10;;;;;;;;;;5015981;28;19925;-54
2022/12/19 01:59:49;;;;;;;13.55;12.45;;;;;;;;;;5016418;28;20029;-52
2022/12/19 02:02:24;;;;;;;14.35;13.02;;;;;;;;;;5017620;28;20050;-54
2022/12/19 02:04:49;;;;;;;11.70;10.88;;;;;;;;;;5014395;28;20120;-53
2022/12/19 02:07:17;;;;;;;12.60;11.65;;;;;;;;;;5018420;28;20431;-55
2022/12/19 02:09:44;;;;;;;12.45;11.60;;;;;;;;;;5018142;28;20034;-53
2022/12/19 02:12:10;;;;;;;13.52;12.50;;;;;;;;;;5018594;28;20030;-54
2022/12/19 02:14:35;;;;;;;11.35;10.50;;;;;;;;;;5014566;28;20581;-55
2022/12/19 02:17:15;;;;;;;13.07;12.07;;;;;;;;;;5014329;28;20030;-54
2022/12/19 02:20:22;;;;;;;11.52;10.70;;;;;;;;;;5015924;28;20029;-55
2022/12/19 02:22:59;;;;;;;11.70;10.93;;;;;;;;;;5015016;28;20045;-54
2022/12/19 02:25:49;;;;;;;14.32;13.02;;;;;;;;;;5014762;28;20041;-54
2022/12/19 02:28:42;;;;;;;13.68;12.60;;;;;;;;;;5015205;28;20471;-53
2022/12/19 02:31:28;;;;;;;15.07;12.52;;;;;;;;;;5015852;28;20095;-55
2022/12/19 02:33:57;;;;;;;14.30;13.07;;;;;;;;;;5015301;28;20042;-54
2022/12/19 02:36:39;;;;;;;11.93;11.10;;;;;;;;;;5015741;28;20049;-54
2022/12/19 02:39:10;;;;;;;13.88;12.70;;;;;;;;;;5017245;28;20120;-54
2022/12/19 02:41:43;;;;;;;15.13;13.70;;;;;;;;;;5015755;28;20043;-54
2022/12/19 02:44:22;;;;;;;14.25;12.85;;;;;;;;;;5016209;28;20044;-51
2022/12/19 02:46:49;;;;;;;12.02;11.05;;;;;;;;;;5016092;28;20095;-53
2022/12/19 02:49:15;;;;;;;13.93;12.93;;;;;;;;;;5017268;28;20117;-53
2022/12/19 02:51:40;;;;;;;13.00;12.00;;;;;;;;;;5016326;28;20117;-51
2022/12/19 02:54:06;;;;;;;14.70;13.50;;;;;;;;;;5014605;28;20045;-52
2022/12/19 02:56:47;;;;;;;12.90;11.88;;;;;;;;;;5013194;28;20087;-54
2022/12/19 02:59:39;;;;;;;16.25;13.15;;;;;;;;;;5014837;28;20042;-55
2022/12/19 03:02:42;;;;;;;13.73;12.63;;;;;;;;;;5023167;28;20044;-51
2022/12/19 03:05:23;;;;;;;13.32;12.43;;;;;;;;;;5012102;28;20045;-53
2022/12/19 03:07:57;;;;;;;14.93;13.38;;;;;;;;;;5013110;28;20485;-54
2022/12/19 03:10:35;;;;;;;14.98;13.77;;;;;;;;;;5015803;28;20676;-53
2022/12/19 03:13:10;;;;;;;12.93;12.02;;;;;;;;;;5016291;28;20106;-54
2022/12/19 03:15:37;;;;;;;16.50;15.02;;;;;;;;;;5015230;28;20037;-53
2022/12/19 03:18:02;;;;;;;12.77;11.88;;;;;;;;;;5015113;28;20482;-54
2022/12/19 03:20:48;;;;;;;14.88;13.52;;;;;;;;;;5015898;28;20025;-54
2022/12/19 03:23:14;;;;;;;14.23;12.98;;;;;;;;;;5015231;28;20037;-55
2022/12/19 03:25:43;;;;;;;15.60;14.10;;;;;;;;;;5013000;28;20038;-54
2022/12/19 03:28:20;;;;;;;14.10;13.20;;;;;;;;;;5015034;28;20100;-54
2022/12/19 03:30:46;;;;;;;14.63;13.52;;;;;;;;;;5017608;28;20060;-53
2022/12/19 03:33:14;;;;;;;13.55;12.43;;;;;;;;;;5014877;28;20041;-54
2022/12/19 03:35:42;;;;;;;14.25;13.25;;;;;;;;;;5017780;28;20033;-54
2022/12/19 03:38:09;;;;;;;13.02;12.05;;;;;;;;;;5014562;28;20076;-55
2022/12/19 03:40:37;;;;;;;14.73;13.70;;;;;;;;;;5015793;28;20041;-54
2022/12/19 03:43:08;;;;;;;13.65;12.65;;;;;;;;;;5015892;28;20029;-54
2022/12/19 03:46:04;;;;;;;13.52;12.60;;;;;;;;;;5010654;28;20503;-55
2022/12/19 03:48:51;;;;;;;12.75;11.68;;;;;;;;;;5015521;28;20041;-55
2022/12/19 03:51:39;;;;;;;15.60;14.25;;;;;;;;;;5016520;28;20687;-55
2022/12/19 03:54:19;;;;;;;13.45;12.10;;;;;;;;;;5012398;28;20376;-55
2022/12/19 03:57:04;;;;;;;13.93;13.03;;;;;;;;;;5014991;28;20095;-52
2022/12/19 03:59:40;;;;;;;17.50;15.10;;;;;;;;;;5015379;28;20444;-54
2022/12/19 04:02:06;;;;;;;13.00;11.98;;;;;;;;;;5016949;28;20120;-54
2022/12/19 04:04:36;;;;;;;16.10;14.20;;;;;;;;;;5014734;28;20694;-55
2022/12/19 04:07:04;;;;;;;18.05;16.45;;;;;;;;;;5016417;28;20033;-54
2022/12/19 04:09:30;;;;;;;13.65;12.60;;;;;;;;;;5014241;28;20467;-54
2022/12/19 04:12:01;;;;;;;14.07;12.90;;;;;;;;;;5013274;28;20040;-59
2022/12/19 04:14:34;;;;;;;12.35;11.40;;;;;;;;;;5014190;28;20033;-59
2022/12/19 04:17:08;;;;;;;14.15;12.85;;;;;;;;;;5013461;28;20144;-59
2022/12/19 04:19:42;;;;;;;14.82;13.52;;;;;;;;;;5015098;28;20045;-58
2022/12/19 04:22:19;;;;;;;15.65;14.13;;;;;;;;;;5012280;28;20075;-59
2022/12/19 04:24:46;;;;;;;12.60;11.45;;;;;;;;;;5015024;28;20037;-60
2022/12/19 04:27:13;;;;;;;13.45;12.35;;;;;;;;;;5013628;28;20045;-59
2022/12/19 04:29:39;;;;;;;13.35;11.98;;;;;;;;;;5012587;28;20396;-59
2022/12/19 04:32:06;;;;;;;14.13;12.85;;;;;;;;;;5014135;28;20146;-59
2022/12/19 04:34:32;;;;;;;12.70;11.82;;;;;;;;;;5012958;28;20031;-59
2022/12/19 04:36:58;;;;;;;13.48;12.30;;;;;;;;;;5014173;28;20044;-59
2022/12/19 04:39:23;;;;;;;14.32;13.13;;;;;;;;;;5011492;28;20038;-59
2022/12/19 04:41:49;;;;;;;12.48;11.48;;;;;;;;;;5014157;28;20057;-59
2022/12/19 04:44:15;;;;;;;13.63;12.48;;;;;;;;;;5016024;28;20036;-59
2022/12/19 04:46:40;;;;;;;12.45;11.55;;;;;;;;;;5014058;28;20111;-59
2022/12/19 04:49:05;;;;;;;12.63;11.73;;;;;;;;;;5012906;28;20092;-59
2022/12/19 04:51:31;;;;;;;12.95;11.48;;;;;;;;;;5013560;28;20061;-60
2022/12/19 04:53:56;;;;;;;12.07;11.18;;;;;;;;;;5013641;28;20045;-59
2022/12/19 04:56:22;;;;;;;13.07;12.05;;;;;;;;;;5012623;28;20451;-59
2022/12/19 04:58:47;;;;;;;13.30;12.27;;;;;;;;;;5012868;28;20529;-59
2022/12/19 05:01:13;;;;;;;13.98;12.63;;;;;;;;;;5012757;28;20036;-59
2022/12/19 05:03:39;;;;;;;14.10;12.90;;;;;;;;;;5013744;28;20129;-59
2022/12/19 05:06:08;;;;;;;12.32;11.43;;;;;;;;;;5013416;28;20041;-59
2022/12/19 05:08:35;;;;;;;12.80;11.90;;;;;;;;;;5012597;28;20475;-59
2022/12/19 05:11:02;;;;;;;18.05;13.30;;;;;;;;;;5014442;28;20479;-60
2022/12/19 05:13:29;;;;;;;12.57;11.57;;;;;;;;;;5010913;28;20021;-59
2022/12/19 05:16:14;;;;;;;15.38;14.13;;;;;;;;;;5014449;28;20030;-59
2022/12/19 05:18:40;;;;;;;14.50;12.70;;;;;;;;;;5009735;28;20045;-58
2022/12/19 05:21:06;;;;;;;12.45;11.55;;;;;;;;;;5012510;28;20103;-58
2022/12/19 05:23:32;;;;;;;12.05;11.25;;;;;;;;;;5015530;28;20044;-59
2022/12/19 05:26:00;;;;;;;13.38;12.40;;;;;;;;;;5011780;28;20033;-58
2022/12/19 05:28:26;;;;;;;14.82;13.57;;;;;;;;;;5011226;28;20112;-59
2022/12/19 05:31:05;;;;;;;12.55;11.65;;;;;;;;;;5012638;28;20026;-59
2022/12/19 05:33:30;;;;;;;12.30;11.40;;;;;;;;;;5012921;28;20044;-58
2022/12/19 05:35:55;;;;;;;15.60;14.13;;;;;;;;;;5013234;28;20025;-58
2022/12/19 05:38:21;;;;;;;13.32;12.30;;;;;;;;;;5013322;28;20136;-58
2022/12/19 05:40:46;;;;;;;13.07;12.05;;;;;;;;;;5011662;28;20036;-59
2022/12/19 05:43:11;;;;;;;12.15;11.32;;;;;;;;;;5011498;28;20041;-58
2022/12/19 05:45:38;;;;;;;12.13;11.32;;;;;;;;;;5012532;28;20030;-58
2022/12/19 05:48:04;;;;;;;12.88;11.95;;;;;;;;;;5011647;28;20212;-58
2022/12/19 05:50:29;;;;;;;15.85;14.38;;;;;;;;;;5013102;28;20061;-58
2022/12/19 05:52:55;;;;;;;14.15;13.07;;;;;;;;;;5014330;28;20038;-58
2022/12/19 05:55:20;;;;;;;13.20;12.18;;;;;;;;;;5015344;28;20041;-59
2022/12/19 05:57:45;;;;;;;13.18;12.27;;;;;;;;;;5012698;28;20041;-58
2022/12/19 06:00:11;;;;;;;13.50;12.32;;;;;;;;;;5014283;28;20088;-58
2022/12/19 06:02:37;;;;;;;13.98;12.93;;;;;;;;;;5011949;28;20037;-58
2022/12/19 06:05:02;;;;;;;12.35;11.45;;;;;;;;;;5013596;28;20046;-58
2022/12/19 06:07:29;;;;;;;13.32;12.05;;;;;;;;;;5011538;28;20022;-59
2022/12/19 06:09:54;;;;;;;13.30;12.40;;;;;;;;;;5012681;28;20375;-58
2022/12/19 06:12:19;;;;;;;12.90;11.70;;;;;;;;;;5012967;28;20025;-58
2022/12/19 06:14:45;;;;;;;12.70;11.45;;;;;;;;;;5008221;28;20061;-58
2022/12/19 06:17:10;;;;;;;20.13;13.93;;;;;;;;;;5012848;28;20030;-58
2022/12/19 06:19:35;;;;;;;14.13;13.15;;;;;;;;;;5012314;28;20041;-58
2022/12/19 06:22:01;;;;;;;13.70;12.68;;;;;;;;;;5012829;28;20095;-58
2022/12/19 06:24:26;;;;;;;13.77;12.68;;;;;;;;;;5013178;28;20045;-58
2022/12/19 06:26:51;;;;;;;13.68;12.57;;;;;;;;;;5015423;28;20030;-58
2022/12/19 06:29:17;;;;;;;15.05;13.88;;;;;;;;;;5016316;28;20059;-59
2022/12/19 06:31:42;;;;;;;12.48;11.57;;;;;;;;;;5017838;28;20033;-59
2022/12/19 06:34:09;;;;;;;14.88;13.73;;;;;;;;;;5015910;28;20502;-58
2022/12/19 06:36:34;;;;;;;14.95;13.75;;;;;;;;;;5019424;28;20113;-58
2022/12/19 06:38:59;;;;;;;13.52;12.38;;;;;;;;;;5015666;28;20519;-58
2022/12/19 06:44:13;;;;;;;21.60;12.77;;;;;;;;;;5013092;28;20052;-58
2022/12/19 06:46:39;;;;;;;13.73;12.65;;;;;;;;;;5014710;28;20422;-58
2022/12/19 06:49:05;;;;;;;13.40;12.18;;;;;;;;;;5015591;28;20782;-58
2022/12/19 06:51:30;;;;;;;14.35;12.88;;;;;;;;;;5015229;28;20053;-58
2022/12/19 06:53:56;;;;;;;13.30;12.30;;;;;;;;;;5014010;28;20100;-58
2022/12/19 06:56:22;;;;;;;12.77;11.55;;;;;;;;;;5011812;28;20034;-58
2022/12/19 06:58:48;;;;;;;15.15;13.88;;;;;;;;;;5017606;28;20033;-58
2022/12/19 07:01:39;;;;;;;16.10;13.52;;;;;;;;;;5017361;28;20410;-58
2022/12/19 07:04:06;;;;;;;15.70;14.23;;;;;;;;;;5017127;28;20057;-59
2022/12/19 07:06:31;;;;;;;12.30;11.25;;;;;;;;;;5015578;28;20356;-58
2022/12/19 07:08:57;;;;;;;14.52;13.18;;;;;;;;;;5013543;28;20037;-59
2022/12/19 07:11:22;;;;;;;13.15;12.10;;;;;;;;;;5011197;28;20036;-59
2022/12/19 07:13:47;;;;;;;12.90;12.00;;;;;;;;;;5011244;28;20043;-59
2022/12/19 07:16:13;;;;;;;12.20;11.18;;;;;;;;;;5014522;28;20478;-59
2022/12/19 07:18:39;;;;;;;14.50;13.50;;;;;;;;;;5012014;28;20615;-59
2022/12/19 07:21:06;;;;;;;14.23;13.02;;;;;;;;;;5014911;28;20053;-59
2022/12/19 07:23:33;;;;;;;14.38;13.10;;;;;;;;;;5014500;28;20037;-59
2022/12/19 07:25:59;;;;;;;14.23;13.25;;;;;;;;;;5011953;28;20029;-59
2022/12/19 07:28:24;;;;;;;14.75;13.65;;;;;;;;;;5015241;28;20033;-59
2022/12/19 07:30:50;;;;;;;12.50;11.68;;;;;;;;;;5012029;28;20044;-59
2022/12/19 07:33:15;;;;;;;14.52;13.25;;;;;;;;;;5011885;28;20626;-59
2022/12/19 07:35:40;;;;;;;15.85;14.65;;;;;;;;;;5014466;28;20386;-59
2022/12/19 07:38:07;;;;;;;15.30;14.18;;;;;;;;;;5012047;28;20048;-59
2022/12/19 07:40:33;;;;;;;13.73;12.57;;;;;;;;;;5014147;28;20044;-59
2022/12/19 07:43:03;;;;;;;13.35;12.10;;;;;;;;;;5015566;28;20046;-60
2022/12/19 07:45:29;;;;;;;13.40;12.30;;;;;;;;;;5012034;28;20037;-59
2022/12/19 07:47:58;;;;;;;13.93;12.82;;;;;;;;;;5013921;28;20037;-59
2022/12/19 07:50:23;;;;;;;13.70;12.60;;;;;;;;;;5013811;28;20563;-59
2022/12/19 07:52:49;;;;;;;13.23;12.07;;;;;;;;;;5016420;28;20036;-61
2022/12/19 07:55:14;;;;;;;14.15;13.00;;;;;;;;;;5018606;28;20486;-59
2022/12/19 07:57:39;;;;;;;13.48;12.27;;;;;;;;;;5017079;28;20057;-59
2022/12/19 08:00:05;;;;;;;13.73;12.57;;;;;;;;;;5018335;28;20088;-59
2022/12/19 08:02:31;;;;;;;19.38;14.38;;;;;;;;;;5015069;28;20037;-59
2022/12/19 08:04:56;;;;;;;15.48;13.88;;;;;;;;;;5015047;28;20035;-59
2022/12/19 08:07:21;;;;;;;11.73;10.93;;;;;;;;;;5018892;28;20052;-59
2022/12/19 08:09:47;;;;;;;13.68;12.50;;;;;;;;;;5018008;28;20030;-60
2022/12/19 08:12:12;;;;;;;15.23;13.77;;;;;;;;;;5018338;28;20148;-59
2022/12/19 08:14:37;;;;;;;14.85;13.52;;;;;;;;;;5014013;28;20045;-60
2022/12/19 08:17:03;;;;;;;14.57;13.30;;;;;;;;;;5017109;28;20514;-60
2022/12/19 08:19:28;;;;;;;13.75;12.68;;;;;;;;;;5016074;28;20489;-57
2022/12/19 08:21:53;;;;;;;14.77;12.93;;;;;;;;;;5016749;28;20412;-55
2022/12/19 08:24:19;;;;;;;14.55;13.38;;;;;;;;;;5010891;28;20033;-56
2022/12/19 08:26:44;;;;;;;14.15;12.80;;;;;;;;;;5012204;28;20462;-55
2022/12/19 08:29:09;;;;;;;15.00;13.57;;;;;;;;;;5010150;28;20102;-56
2022/12/19 08:31:35;;;;;;;16.00;12.98;;;;;;;;;;5014084;28;20053;-55
2022/12/19 08:34:00;;;;;;;13.30;12.23;;;;;;;;;;5012942;28;20037;-57
2022/12/19 08:36:26;;;;;;;15.02;13.48;;;;;;;;;;5013952;28;20029;-57
2022/12/19 08:38:52;;;;;;;15.10;13.68;;;;;;;;;;5013592;28;20474;-57
2022/12/19 08:41:17;;;;;;;11.18;10.40;;;;;;;;;;5010617;28;20037;-57
2022/12/19 08:43:48;;;;;;;14.57;13.30;;;;;;;;;;5012444;28;20065;-57
2022/12/19 08:46:14;;;;;;;;;;;;;;;;;;5012218;28;20126;-57
2022/12/19 08:48:39;;;;;;;15.27;13.95;;;;;;;;;;5012001;28;20035;-56
2022/12/19 08:51:06;;;;;;;13.77;12.73;;;;;;;;;;5011063;28;20672;-55
2022/12/19 08:53:36;;;;;;;12.65;11.63;;;;;;;;;;5012074;28;20525;-58
2022/12/19 08:56:07;;;;;;;13.77;12.52;;;;;;;;;;5012774;28;20119;-60
2022/12/19 08:58:33;;;;;;;17.20;14.75;;;;;;;;;;5010284;28;20104;-60
2022/12/19 09:01:05;;;;;;;16.55;13.63;;;;;;;;;;5012801;28;20514;-60
2022/12/19 09:03:31;;;;;;;17.52;16.10;;;;;;;;;;5011693;28;20094;-60
2022/12/19 09:05:58;;;;;;;15.13;13.75;;;;;;;;;;5010237;28;20132;-60
2022/12/19 09:08:24;;;;;;;13.85;12.88;;;;;;;;;;5012456;28;20018;-60
2022/12/19 09:10:50;;;;;;;13.23;12.02;;;;;;;;;;5011325;28;20037;-59
2022/12/19 09:13:15;;;;;;;16.33;14.85;;;;;;;;;;5009717;28;20030;-60
2022/12/19 09:15:41;;;;;;;13.43;12.30;;;;;;;;;;5011569;28;20029;-60
2022/12/19 09:18:06;;;;;;;12.80;11.77;;;;;;;;;;5009936;28;20673;-60
2022/12/19 09:20:32;;;;;;;12.98;12.05;;;;;;;;;;5012305;28;20060;-60
2022/12/19 09:22:57;;;;;;;14.50;13.35;;;;;;;;;;5013142;28;20219;-60
2022/12/19 09:25:23;;;;;;;15.25;13.95;;;;;;;;;;5011754;28;20064;-60
2022/12/19 09:27:48;;;;;;;14.90;13.80;;;;;;;;;;5008863;28;20037;-60
2022/12/19 09:30:13;;;;;;;13.88;12.88;;;;;;;;;;5011012;28;20037;-60
2022/12/19 09:32:39;;;;;;;14.40;13.30;;;;;;;;;;5010446;28;20037;-59
2022/12/19 09:35:05;;;;;;;13.90;12.90;;;;;;;;;;5007649;28;20584;-58
2022/12/19 09:37:30;;;;;;;13.40;12.30;;;;;;;;;;5011634;28;20502;-60
2022/12/19 09:39:56;;;;;;;14.25;13.15;;;;;;;;;;5011751;28;20111;-60
2022/12/19 09:42:39;;;;;;;16.10;14.20;;;;;;;;;;5012827;28;20033;-59
2022/12/19 09:45:07;;;;;;;14.48;13.07;;;;;;;;;;5010617;28;20041;-61
2022/12/19 09:47:35;;;;;;;14.70;13.40;;;;;;;;;;5014327;28;20518;-60
2022/12/19 09:50:01;;;;;;;15.27;13.88;;;;;;;;;;5011872;28;20733;-60
2022/12/19 09:52:33;;;;;;;13.25;12.23;;;;;;;;;;5012817;28;20034;-60
2022/12/19 09:55:19;;;;;;;14.45;13.40;;;;;;;;;;5011403;28;20998;-60
2022/12/19 09:57:56;;;;;;;12.82;11.98;;;;;;;;;;5011733;28;20084;-60
2022/12/19 10:00:21;;;;;;;13.82;12.75;;;;;;;;;;5013179;28;20407;-60
2022/12/19 10:03:01;;;;;;;14.27;13.25;;;;;;;;;;5014376;28;20037;-60
2022/12/19 10:05:44;;;;;;;14.88;13.57;;;;;;;;;;5012741;28;20397;-60
2022/12/19 10:08:26;;;;;;;24.13;15.93;;;;;;;;;;5017745;28;20096;-60
2022/12/19 10:11:29;;;;;;;17.88;16.02;;;;;;;;;;5018350;28;20498;-60
2022/12/19 10:14:19;;;;;;;14.82;13.50;;;;;;;;;;5017388;28;20079;-54
2022/12/19 10:16:58;;;;;;;13.33;12.33;;;;;;;;;;5002595;28;20040;-56
2022/12/19 10:19:41;;;;;;;13.68;12.38;;;;;;;;;;5017205;28;20033;-57
2022/12/19 10:22:34;;;;;;;14.07;12.98;;;;;;;;;;5016568;28;20047;-57
2022/12/19 10:25:10;;;;;;;14.73;13.63;;;;;;;;;;5014944;28;20030;-57
2022/12/19 10:27:39;;;;;;;13.90;12.60;;;;;;;;;;5014312;28;20562;-56
2022/12/19 10:30:16;;;;;;;13.18;12.18;;;;;;;;;;5017060;28;20046;-57
2022/12/19 10:33:26;;;;;;;14.82;13.63;;;;;;;;;;5016713;28;20068;-55
2022/12/19 10:35:56;;;;;;;14.60;13.25;;;;;;;;;;5016748;28;20033;-56
2022/12/19 10:38:34;;;;;;;14.50;13.35;;;;;;;;;;5017741;28;20042;-56
2022/12/19 10:41:09;;;;;;;14.90;13.55;;;;;;;;;;5017254;28;20061;-53
2022/12/19 10:43:52;;;;;;;14.32;13.18;;;;;;;;;;5013785;28;20108;-54
2022/12/19 10:46:36;;;;;;;16.58;15.30;;;;;;;;;;5017466;28;20421;-55
2022/12/19 10:49:16;;;;;;;13.95;12.80;;;;;;;;;;5015700;28;20045;-53
2022/12/19 10:51:57;;;;;;;14.73;13.30;;;;;;;;;;5016857;28;20520;-53
2022/12/19 10:54:36;;;;;;;15.98;14.35;;;;;;;;;;5014746;28;20530;-54
2022/12/19 10:57:24;;;;;;;15.55;14.40;;;;;;;;;;5014571;28;20081;-51
2022/12/19 11:00:14;;;;;;;17.15;15.43;;;;;;;;;;5016053;28;20471;-51
2022/12/19 11:02:44;;;;;;;13.73;12.63;;;;;;;;;;5015262;28;20163;-53
2022/12/19 11:05:21;;;;;;;14.38;13.30;;;;;;;;;;5016388;28;20048;-49
2022/12/19 11:08:05;;;;;;;16.55;13.02;;;;;;;;;;5015706;28;20743;-49
2022/12/19 11:10:42;;;;;;;16.23;14.73;;;;;;;;;;5016167;28;20037;-50
2022/12/19 11:13:21;;;;;;;25.63;13.35;;;;;;;;;;5014189;28;20029;-52
2022/12/19 11:15:57;;;;;;;13.55;12.63;;;;;;;;;;5019980;28;20033;-49
2022/12/19 11:18:32;;;;;;;15.00;13.77;;;;;;;;;;5015404;28;20056;-53
2022/12/19 11:21:00;;;;;;;14.45;13.45;;;;;;;;;;5015529;28;20052;-49
2022/12/19 11:23:27;;;;;;;14.82;13.55;;;;;;;;;;5013936;28;20029;-51
2022/12/19 11:25:58;;;;;;;16.77;15.30;;;;;;;;;;5017612;28;20085;-53
2022/12/19 11:28:33;;;;;;;;;;;;;;;;;;5015594;28;20115;-51
2022/12/19 11:31:27;;;;;;;15.32;14.00;;;;;;;;;;5016069;28;19921;-53
2022/12/19 11:34:00;;;;;;;16.33;14.95;;;;;;;;;;5015051;28;20131;-51
2022/12/19 11:36:37;;;;;;;17.52;16.13;;;;;;;;;;5015353;28;20045;-53
2022/12/19 11:39:07;;;;;;;18.23;16.38;;;;;;;;;;5013462;28;20041;-57
2022/12/19 11:41:39;;;;;;;15.30;14.20;;;;;;;;;;5028255;28;20120;-53
2022/12/19 11:44:28;;;;;;;14.65;13.55;;;;;;;;;;5011473;28;20566;-52
2022/12/19 11:47:04;;;;;;;13.40;12.45;;;;;;;;;;5009449;28;20151;-54
2022/12/19 11:49:52;;;;;;;16.40;14.82;;;;;;;;;;5015640;28;20038;-53
2022/12/19 11:52:42;;;;;;;14.07;13.00;;;;;;;;;;5013099;28;20091;-50
2022/12/19 11:55:20;;;;;;;14.95;13.77;;;;;;;;;;5011842;28;20038;-50
2022/12/19 11:57:46;;;;;;;14.30;13.30;;;;;;;;;;5012932;28;20135;-51
2022/12/19 12:00:23;;;;;;;14.38;13.27;;;;;;;;;;5009558;28;20117;-56
2022/12/19 12:03:25;;;;;;;12.93;12.02;;;;;;;;;;5012818;28;20072;-52
2022/12/19 12:05:51;;;;;;;15.38;13.75;;;;;;;;;;5010854;28;20029;-53
2022/12/19 12:08:48;;;;;;;15.20;13.93;;;;;;;;;;5012932;28;20087;-51
2022/12/19 12:11:53;;;;;;;12.75;11.70;;;;;;;;;;5017964;28;20153;-53
2022/12/19 12:14:36;;;;;;;14.15;12.80;;;;;;;;;;5011248;28;20391;-52
2022/12/19 12:17:16;;;;;;;14.40;13.30;;;;;;;;;;5015029;28;20034;-54
2022/12/19 12:20:03;;;;;;;14.70;13.65;;;;;;;;;;5013449;28;20039;-49
2022/12/19 12:22:31;;;;;;;14.40;13.35;;;;;;;;;;5011374;28;20085;-55
2022/12/19 12:25:25;;;;;;;14.00;12.90;;;;;;;;;;5010888;28;20037;-53
2022/12/19 12:27:56;;;;;;;15.18;13.68;;;;;;;;;;5007239;28;20073;-56
2022/12/19 12:30:21;;;;;;;;;;;;;;;;;;5010059;28;20101;-54
2022/12/19 12:32:50;;;;;;;14.57;13.48;;;;;;;;;;5043181;28;19924;-51
2022/12/19 12:35:21;;;;;;;14.50;13.32;;;;;;;;;;5013991;28;20076;-53
2022/12/19 12:37:52;;;;;;;;;;;;;;;;;;5012129;28;20044;-50
2022/12/19 12:40:53;;;;;;;14.23;13.23;;;;;;;;;;5012136;28;19917;-53
2022/12/19 12:43:43;;;;;;;16.25;14.40;;;;;;;;;;4967854;28;20042;-53
2022/12/19 12:46:19;;;;;;;14.88;13.77;;;;;;;;;;5010009;28;20184;-49
2022/12/19 12:48:52;;;;;;;14.80;13.25;;;;;;;;;;5017086;28;20251;-50
2022/12/19 12:51:18;;;;;;;16.88;15.38;;;;;;;;;;5009901;28;20046;-52
2022/12/19 12:53:46;;;;;;;13.75;12.75;;;;;;;;;;5014848;28;20045;-51
2022/12/19 12:56:16;;;;;;;14.52;13.43;;;;;;;;;;5014307;28;20073;-53
2022/12/19 12:58:47;;;;;;;14.38;13.18;;;;;;;;;;5016490;28;20037;-52
2022/12/19 13:01:17;;;;;;;15.13;14.07;;;;;;;;;;5011016;28;20800;-53
2022/12/19 13:03:53;;;;;;;17.48;15.82;;;;;;;;;;5015296;28;20041;-52
2022/12/19 13:06:30;;;;;;;14.43;13.13;;;;;;;;;;5011316;28;20088;-54
2022/12/19 13:09:03;;;;;;;13.73;12.73;;;;;;;;;;5011735;28;20069;-50
2022/12/19 13:14:41;;;;;;;15.13;13.93;;;;;;;;;;5011668;28;20464;-49
2022/12/19 13:17:16;;;;;;;14.30;13.13;;;;;;;;;;5013843;28;20116;-52
2022/12/19 13:19:56;;;;;;;15.27;14.02;;;;;;;;;;5010449;28;20044;-51
2022/12/19 13:22:28;;;;;;;14.75;13.48;;;;;;;;;;5011491;28;20034;-51
2022/12/19 13:24:56;;;;;;;12.52;11.63;;;;;;;;;;5009897;28;20092;-53
2022/12/19 13:27:21;;;;;;;14.40;13.38;;;;;;;;;;5011955;28;20061;-55
2022/12/19 13:29:58;;;;;;;14.48;13.45;;;;;;;;;;5014431;28;20072;-51
2022/12/19 13:32:25;;;;;;;14.70;13.55;;;;;;;;;;5012714;28;20048;-54
2022/12/19 13:34:53;;;;;;;14.40;13.38;;;;;;;;;;5009982;28;20156;-52
2022/12/19 13:37:18;;;;;;;14.15;13.15;;;;;;;;;;5010163;28;20033;-53
2022/12/19 13:39:49;;;;;;;15.65;14.55;;;;;;;;;;5011531;28;20415;-50
2022/12/19 13:45:08;;;;;;;14.15;13.15;;;;;;;;;;5012880;28;20376;-52
2022/12/19 13:47:38;;;;;;;15.23;13.77;;;;;;;;;;5012027;28;20028;-53
2022/12/19 13:50:26;;;;;;;14.35;13.20;;;;;;;;;;5015970;28;20058;-52
2022/12/19 13:52:52;;;;;;;16.17;14.85;;;;;;;;;;5011635;28;20113;-50
2022/12/19 13:55:18;;;;;;;16.27;14.73;;;;;;;;;;5013871;28;20191;-52
2022/12/19 13:57:48;;;;;;;16.33;15.10;;;;;;;;;;5010937;28;20037;-52
2022/12/19 14:00:21;;;;;;;18.77;16.17;;;;;;;;;;5011469;28;20029;-49
2022/12/19 14:02:50;;;;;;;15.52;14.20;;;;;;;;;;5012478;28;20090;-51
2022/12/19 14:05:22;;;;;;;12.77;11.88;;;;;;;;;;5014743;28;20061;-52
2022/12/19 14:07:49;;;;;;;17.20;15.80;;;;;;;;;;5014124;28;20539;-54
2022/12/19 14:10:18;;;;;;;17.67;16.13;;;;;;;;;;5012530;28;20466;-50
2022/12/19 14:15:37;;;;;;;15.85;14.63;;;;;;;;;;5008519;28;20036;-50
2022/12/19 14:18:18;;;;;;;16.52;13.18;;;;;;;;;;5011161;28;20041;-50
2022/12/19 14:20:44;;;;;;;14.25;12.90;;;;;;;;;;5013856;28;20044;-53
2022/12/19 14:23:10;;;;;;;15.02;13.85;;;;;;;;;;5010657;28;20030;-52
2022/12/19 14:25:46;;;;;;;14.43;13.40;;;;;;;;;;5013036;28;20029;-51
2022/12/19 14:28:18;;;;;;;14.48;13.25;;;;;;;;;;5012926;28;20033;-51
2022/12/19 14:30:48;;;;;;;14.13;12.98;;;;;;;;;;5016155;28;20097;-55
2022/12/19 14:33:17;;;;;;;12.15;11.23;;;;;;;;;;5011083;28;20475;-52
2022/12/19 14:35:48;;;;;;;16.33;14.50;;;;;;;;;;5014043;28;20107;-51
2022/12/19 14:38:17;;;;;;;13.82;12.55;;;;;;;;;;5014854;28;20277;-53
2022/12/19 14:40:43;;;;;;;13.20;12.20;;;;;;;;;;5012546;28;20060;-49
2022/12/19 14:46:19;;;;;;;15.75;14.52;;;;;;;;;;5010444;28;20038;-50
2022/12/19 14:49:00;;;;;;;13.68;12.63;;;;;;;;;;5016613;28;20029;-51
2022/12/19 14:51:27;;;;;;;16.83;15.48;;;;;;;;;;5015754;28;20057;-48
2022/12/19 14:54:23;;;;;;;14.68;13.43;;;;;;;;;;5016057;28;20041;-50
2022/12/19 14:56:59;;;;;;;15.90;14.48;;;;;;;;;;5014782;28;20617;-50
2022/12/19 14:59:34;;;;;;;15.60;14.38;;;;;;;;;;5014346;28;20128;-49